Time;durP1;ratioP1;P1;durP2;ratioP2;P2;SDS_P1;SDS_P2;PMS_P1;PMS_P2;Temp;Humidity;BMP_temperature;BMP_pressure;BME280_temperature;BME280_humidity;BME280_pressure;Samples;Min_cycle;Max_cycle;Signal;HPM_P1;HPM_P2
2022/02/08 00:02:16;;;;;;;6.18;2.35;;;4.50;99.90;;;;;;6218788;23;20005;-92
2022/02/08 00:04:42;;;;;;;4.07;2.00;;;4.50;99.90;;;;;;6217024;23;20009;-92
2022/02/08 00:07:10;;;;;;;4.85;2.30;;;4.50;99.90;;;;;;6216740;23;20338;-91
2022/02/08 00:09:37;;;;;;;7.13;2.38;;;4.50;99.90;;;;;;6218080;23;20315;-93
2022/02/08 00:12:03;;;;;;;8.60;2.40;;;4.50;99.90;;;;;;6217020;23;20421;-92
2022/02/08 00:14:28;;;;;;;6.53;2.38;;;4.50;99.90;;;;;;6217248;23;20058;-92
2022/02/08 00:16:54;;;;;;;11.27;2.67;;;4.50;99.90;;;;;;6216900;23;20001;-92
2022/02/08 00:19:20;;;;;;;4.97;2.28;;;4.50;99.90;;;;;;6216794;23;20480;-92
2022/02/08 00:21:46;;;;;;;5.95;2.15;;;4.50;99.90;;;;;;6216414;23;20434;-92
2022/02/08 00:24:11;;;;;;;4.75;2.17;;;4.50;99.90;;;;;;6216694;23;20058;-92
2022/02/08 00:26:37;;;;;;;7.57;2.45;;;4.50;99.90;;;;;;6216636;23;20012;-93
2022/02/08 00:29:03;;;;;;;4.55;2.13;;;4.50;99.90;;;;;;6216644;23;20009;-92
2022/02/08 00:31:29;;;;;;;8.10;2.03;;;4.50;99.90;;;;;;6216779;23;20032;-93
2022/02/08 00:33:55;;;;;;;7.07;2.25;;;4.50;99.90;;;;;;6216662;23;20007;-92
2022/02/08 00:36:22;;;;;;;5.75;1.92;;;4.50;99.90;;;;;;6216287;23;20008;-92
2022/02/08 00:38:49;;;;;;;5.45;2.28;;;4.50;99.90;;;;;;6216717;23;20008;-92
2022/02/08 00:41:16;;;;;;;6.63;2.10;;;4.40;99.90;;;;;;6216389;23;20120;-92
2022/02/08 00:46:16;;;;;;;4.60;1.85;;;4.50;99.90;;;;;;6218305;23;20020;-93
2022/02/08 00:48:53;;;;;;;8.75;2.10;;;4.40;99.90;;;;;;6217350;23;20039;-93
2022/02/08 00:51:18;;;;;;;8.65;2.33;;;4.40;99.90;;;;;;6221993;23;20009;-92
2022/02/08 00:53:44;;;;;;;5.85;2.50;;;4.40;99.90;;;;;;6248229;23;19996;-92
2022/02/08 00:56:10;;;;;;;3.83;1.90;;;4.50;99.90;;;;;;6248303;23;20072;-92
2022/02/08 00:58:35;;;;;;;5.10;2.00;;;4.50;99.90;;;;;;6247991;23;20000;-94
2022/02/08 01:01:01;;;;;;;7.68;2.03;;;4.40;99.90;;;;;;6221529;23;20008;-93
2022/02/08 01:03:27;;;;;;;3.88;1.90;;;4.40;99.90;;;;;;6221561;23;20045;-93
2022/02/08 01:06:03;;;;;;;7.57;2.50;;;4.40;99.90;;;;;;6221315;23;20028;-93
2022/02/08 01:08:31;;;;;;;7.95;2.17;;;4.40;99.90;;;;;;6221241;23;20019;-93
2022/02/08 01:10:57;;;;;;;5.60;2.20;;;4.40;99.90;;;;;;6221307;23;20091;-92
2022/02/08 01:13:24;;;;;;;5.20;2.15;;;4.40;99.90;;;;;;6221342;23;20001;-92
2022/02/08 01:15:50;;;;;;;5.72;1.92;;;4.40;99.90;;;;;;6221230;23;20000;-93
2022/02/08 01:18:16;;;;;;;5.68;2.20;;;4.40;99.90;;;;;;6221252;23;20011;-92
2022/02/08 01:20:42;;;;;;;5.57;2.17;;;4.40;99.90;;;;;;6221158;23;20008;-93
2022/02/08 01:23:10;;;;;;;8.60;2.28;;;4.40;99.90;;;;;;6247877;23;20336;-93
2022/02/08 01:25:48;;;;;;;6.30;2.40;;;4.40;99.90;;;;;;6247715;23;20495;-92
2022/02/08 01:44:18;;;;;;;4.55;2.00;;;4.40;99.90;;;;;;6247585;23;20441;-92
2022/02/08 01:51:51;;;;;;;9.80;2.35;;;4.40;99.90;;;;;;6247514;23;20008;-92
2022/02/08 01:54:16;;;;;;;5.30;2.40;;;4.40;99.90;;;;;;6220522;23;20004;-93
2022/02/08 01:56:42;;;;;;;10.40;2.10;;;4.40;99.90;;;;;;6220862;23;20155;-93
2022/02/08 01:59:09;;;;;;;7.10;1.52;;;4.40;99.90;;;;;;6221456;23;20093;-95
2022/02/08 02:01:37;;;;;;;11.38;2.72;;;4.40;99.90;;;;;;6221745;23;20042;-96
2022/02/08 02:04:03;;;;;;;5.82;2.10;;;4.30;99.90;;;;;;6247491;23;20035;-94
2022/02/08 02:06:29;;;;;;;6.88;1.98;;;4.30;99.90;;;;;;6221234;23;20004;-95
2022/02/08 02:08:55;;;;;;;6.63;2.05;;;4.30;99.90;;;;;;6221893;23;20480;-95
2022/02/08 02:11:21;;;;;;;7.95;1.83;;;4.30;99.90;;;;;;6220835;23;20032;-92
2022/02/08 02:13:49;;;;;;;6.00;2.15;;;4.30;99.90;;;;;;6220382;23;20448;-92
2022/02/08 02:16:22;;;;;;;5.07;1.73;;;4.30;99.90;;;;;;6220359;23;20027;-93
2022/02/08 02:18:47;;;;;;;6.10;1.98;;;4.40;99.90;;;;;;6247418;23;20004;-93
2022/02/08 02:21:16;;;;;;;8.85;2.28;;;4.30;99.90;;;;;;6220363;23;20015;-93
2022/02/08 02:23:48;;;;;;;8.90;2.13;;;4.30;99.90;;;;;;6221130;23;20008;-94
2022/02/08 02:26:15;;;;;;;7.60;1.95;;;4.30;99.90;;;;;;6220366;23;20004;-95
2022/02/08 02:28:41;;;;;;;4.30;2.03;;;4.30;99.90;;;;;;6221403;23;20112;-93
2022/02/08 02:31:07;;;;;;;8.15;2.20;;;4.30;99.90;;;;;;6220729;23;20024;-93
2022/02/08 02:33:32;;;;;;;5.95;2.03;;;4.30;99.90;;;;;;6220523;23;20452;-93
2022/02/08 02:35:58;;;;;;;6.30;1.65;;;4.30;99.90;;;;;;6220453;23;20006;-93
2022/02/08 02:38:24;;;;;;;4.97;1.77;;;4.30;99.90;;;;;;6220518;23;20008;-92
2022/02/08 02:40:52;;;;;;;4.43;1.80;;;4.30;99.90;;;;;;6247594;23;20095;-94
2022/02/08 02:43:18;;;;;;;5.72;2.00;;;4.30;99.90;;;;;;6220862;23;20061;-93
2022/02/08 02:45:44;;;;;;;3.95;1.92;;;4.30;99.90;;;;;;6220651;23;20008;-93
2022/02/08 02:48:10;;;;;;;8.80;2.65;;;4.30;99.90;;;;;;6220181;23;20011;-94
2022/02/08 02:50:37;;;;;;;6.78;2.45;;;4.30;99.90;;;;;;6215102;23;20012;-93
2022/02/08 02:53:03;;;;;;;4.45;1.80;;;4.30;99.90;;;;;;6215542;23;20035;-93
2022/02/08 02:55:32;;;;;;;6.60;2.00;;;4.30;99.90;;;;;;6215196;23;20449;-93
2022/02/08 02:57:59;;;;;;;6.90;2.10;;;4.30;99.90;;;;;;6215282;23;20040;-94
2022/02/08 03:19:29;;;;;;;5.97;1.77;;;4.20;99.90;;;;;;6218183;23;19946;-93
2022/02/08 03:21:55;;;;;;;7.88;2.30;;;4.20;99.90;;;;;;6217261;23;20001;-93
2022/02/08 03:24:21;;;;;;;4.28;1.50;;;4.20;99.90;;;;;;6217069;23;20059;-93
2022/02/08 03:26:47;;;;;;;6.13;1.95;;;4.30;99.90;;;;;;6217011;23;20015;-94
2022/02/08 03:29:12;;;;;;;6.43;1.70;;;4.30;99.90;;;;;;6216918;23;20015;-94
2022/02/08 03:31:38;;;;;;;4.88;2.00;;;4.20;99.90;;;;;;6216750;23;20008;-94
2022/02/08 03:34:04;;;;;;;4.50;1.50;;;4.30;99.90;;;;;;6216926;23;19997;-94
2022/02/08 03:36:30;;;;;;;8.18;1.77;;;4.20;99.90;;;;;;6216738;23;20001;-94
2022/02/08 03:39:11;;;;;;;9.75;2.42;;;4.20;99.90;;;;;;6216666;23;20005;-94
2022/02/08 03:41:42;;;;;;;9.02;2.00;;;4.20;99.90;;;;;;6217151;23;20008;-93
2022/02/08 03:44:15;;;;;;;4.60;1.70;;;4.20;99.90;;;;;;6217102;23;20005;-94
2022/02/08 03:46:41;;;;;;;5.03;1.85;;;4.20;99.90;;;;;;6216598;23;20397;-94
2022/02/08 03:49:08;;;;;;;7.85;1.65;;;4.20;99.90;;;;;;6216613;23;20337;-93
2022/02/08 03:51:47;;;;;;;6.80;2.10;;;4.20;99.90;;;;;;6216926;23;20006;-93
2022/02/08 03:54:13;;;;;;;6.10;1.80;;;4.20;99.90;;;;;;6216797;23;20099;-95
2022/02/08 03:56:39;;;;;;;4.85;1.73;;;4.20;99.90;;;;;;6216793;23;20039;-94
2022/02/08 03:59:05;;;;;;;6.55;1.67;;;4.20;99.90;;;;;;6216677;23;20009;-94
2022/02/08 04:06:28;;;;;;;6.32;1.75;;;4.20;99.90;;;;;;6217503;23;20475;-94
2022/02/08 04:08:57;;;;;;;9.15;2.28;;;4.20;99.90;;;;;;6216533;23;20035;-95
2022/02/08 04:11:23;;;;;;;5.38;1.50;;;4.10;99.90;;;;;;6216603;23;20078;-93
2022/02/08 04:13:57;;;;;;;9.60;2.10;;;4.20;99.90;;;;;;6216275;23;20430;-93
2022/02/08 04:16:35;;;;;;;5.88;1.75;;;4.10;99.90;;;;;;6216200;23;20001;-95
2022/02/08 04:19:18;;;;;;;7.30;2.03;;;4.10;99.90;;;;;;6216257;23;20489;-94
2022/02/08 04:32:46;;;;;;;6.25;1.90;;;4.10;99.90;;;;;;6217878;23;20325;-95
2022/02/08 04:35:36;;;;;;;7.10;1.73;;;4.10;99.90;;;;;;6216778;23;20004;-92
2022/02/08 04:40:58;;;;;;;6.63;1.90;;;4.10;99.90;;;;;;6218052;23;20090;-95
2022/02/08 04:43:35;;;;;;;4.63;1.70;;;4.10;99.90;;;;;;6218770;23;20078;-94
2022/02/08 04:46:51;;;;;;;6.85;1.80;;;4.10;99.90;;;;;;6216948;23;20058;-94
2022/02/08 04:48:57;;;;;;;8.60;1.83;;;4.10;99.90;;;;;;6208309;23;20095;-93
2022/02/08 04:54:07;;;;;;;7.35;1.77;;;4.10;99.90;;;;;;6247998;23;20463;-95
2022/02/08 04:57:21;;;;;;;7.90;2.30;;;4.10;99.90;;;;;;6221037;23;20054;-95
2022/02/08 05:44:34;;;;;;;7.38;2.13;;;4.10;99.90;;;;;;6247698;23;20043;-92
2022/02/08 05:47:00;;;;;;;5.15;1.75;;;4.10;99.90;;;;;;6221027;23;20058;-94
2022/02/08 05:49:40;;;;;;;7.25;1.95;;;4.10;99.90;;;;;;6221008;23;20008;-95
2022/02/08 05:54:40;;;;;;;9.60;2.50;;;4.10;99.90;;;;;;6257419;23;20004;-94
2022/02/08 05:57:07;;;;;;;8.60;2.28;;;4.10;99.90;;;;;;6220690;23;20007;-93
2022/02/08 05:59:33;;;;;;;7.43;2.22;;;4.00;99.90;;;;;;6220682;23;20008;-94
2022/02/08 06:01:59;;;;;;;6.68;2.08;;;4.10;99.90;;;;;;6220854;23;20005;-93
2022/02/08 06:04:25;;;;;;;6.60;2.03;;;4.00;99.90;;;;;;6221065;23;20008;-95
2022/02/08 06:06:50;;;;;;;6.65;2.05;;;4.10;99.90;;;;;;6221617;23;20086;-92
2022/02/08 06:09:17;;;;;;;5.97;1.95;;;4.10;99.90;;;;;;6221305;23;20008;-94
2022/02/08 06:11:43;;;;;;;6.50;1.98;;;4.10;99.90;;;;;;6222185;23;20000;-94
2022/02/08 06:14:10;;;;;;;6.05;1.70;;;4.10;99.90;;;;;;6222534;23;20019;-95
2022/02/08 06:16:36;;;;;;;7.00;2.20;;;4.10;99.90;;;;;;6224465;23;20000;-93
2022/02/08 06:19:06;;;;;;;11.43;2.40;;;4.00;99.90;;;;;;6221126;23;20015;-94
2022/02/08 06:21:32;;;;;;;9.57;2.17;;;4.00;99.90;;;;;;6246940;23;20012;-95
2022/02/08 06:23:58;;;;;;;5.45;1.92;;;4.00;99.90;;;;;;6221879;23;20072;-96
2022/02/08 06:26:24;;;;;;;8.27;1.80;;;4.00;99.90;;;;;;6247954;23;20007;-95
2022/02/08 06:29:03;;;;;;;12.35;2.10;;;4.00;99.90;;;;;;6220766;23;20011;-94
2022/02/08 06:31:29;;;;;;;5.97;2.10;;;4.00;99.90;;;;;;6223667;23;20453;-94
2022/02/08 06:33:55;;;;;;;6.53;2.03;;;4.00;99.90;;;;;;6222749;23;20000;-94
2022/02/08 06:36:21;;;;;;;6.80;2.30;;;4.00;99.90;;;;;;6223760;23;20004;-96
2022/02/08 06:38:46;;;;;;;8.85;2.20;;;4.00;99.90;;;;;;6225547;23;20015;-94
2022/02/08 06:41:13;;;;;;;10.30;2.13;;;4.00;99.90;;;;;;6225197;23;20004;-94
2022/02/08 06:43:38;;;;;;;5.15;2.15;;;4.00;99.90;;;;;;6223246;23;20062;-94
2022/02/08 06:46:04;;;;;;;15.18;2.25;;;4.00;99.90;;;;;;6224081;23;20008;-93
2022/02/08 06:48:30;;;;;;;11.25;2.47;;;4.00;99.90;;;;;;6222168;23;20384;-94
2022/02/08 06:50:57;;;;;;;8.63;1.95;;;4.00;99.90;;;;;;6222343;23;20016;-92
2022/02/08 06:53:23;;;;;;;10.95;2.40;;;4.00;99.90;;;;;;6223809;23;20083;-94
2022/02/08 06:55:50;;;;;;;6.30;2.10;;;4.00;99.90;;;;;;6222559;23;20421;-93
2022/02/08 06:58:16;;;;;;;8.07;2.40;;;4.00;99.90;;;;;;6223508;23;20000;-95
2022/02/08 07:00:45;;;;;;;4.95;1.75;;;4.00;99.90;;;;;;6225795;23;20079;-93
2022/02/08 07:03:13;;;;;;;7.45;2.47;;;4.00;99.90;;;;;;6225684;23;20004;-95
2022/02/08 07:05:41;;;;;;;8.60;2.22;;;4.00;99.90;;;;;;6223640;23;20424;-95
2022/02/08 07:08:08;;;;;;;8.45;2.13;;;4.00;99.90;;;;;;6225214;23;20070;-94
2022/02/08 07:10:36;;;;;;;14.48;2.40;;;3.90;99.90;;;;;;6226240;23;20086;-95
2022/02/08 07:13:03;;;;;;;10.50;2.25;;;4.00;99.90;;;;;;6253706;23;19996;-95
2022/02/08 07:15:30;;;;;;;8.35;1.90;;;4.00;99.90;;;;;;6227004;23;20035;-96
2022/02/08 07:17:57;;;;;;;6.93;2.22;;;4.00;99.90;;;;;;6227429;23;20008;-95
2022/02/08 07:20:23;;;;;;;7.82;2.30;;;4.00;99.90;;;;;;6226391;23;20008;-95
2022/02/08 07:22:48;;;;;;;8.88;2.22;;;4.00;99.90;;;;;;6224656;23;20024;-94
2022/02/08 07:25:14;;;;;;;10.50;2.22;;;4.00;99.90;;;;;;6223963;23;20091;-94
2022/02/08 07:27:40;;;;;;;12.13;1.80;;;4.00;99.90;;;;;;6224596;23;20464;-94
2022/02/08 07:30:10;;;;;;;9.52;2.03;;;4.00;99.90;;;;;;6222948;23;20004;-92
2022/02/08 07:32:38;;;;;;;9.48;2.20;;;4.00;99.90;;;;;;6222645;23;20000;-94
2022/02/08 07:37:48;;;;;;;8.23;2.03;;;4.00;99.90;;;;;;6249545;23;19996;-94
2022/02/08 07:40:27;;;;;;;6.75;1.80;;;4.00;99.90;;;;;;6201403;23;20397;-94
2022/02/08 07:42:53;;;;;;;10.25;2.30;;;4.00;99.90;;;;;;6222114;23;19996;-93
2022/02/08 07:45:19;;;;;;;6.72;2.03;;;4.00;99.90;;;;;;6221949;23;20425;-95
2022/02/08 07:47:47;;;;;;;7.63;2.13;;;4.10;99.90;;;;;;6225017;23;20031;-95
2022/02/08 07:50:13;;;;;;;9.07;2.45;;;4.10;99.90;;;;;;6222652;23;20054;-92
2022/02/08 07:52:40;;;;;;;8.73;2.53;;;4.10;99.90;;;;;;6220865;23;20004;-88
2022/02/08 07:55:06;;;;;;;8.77;2.40;;;4.00;99.90;;;;;;6220445;23;20004;-88
2022/02/08 07:57:32;;;;;;;10.13;2.33;;;4.10;99.90;;;;;;6220542;23;20031;-85
2022/02/08 07:59:57;;;;;;;8.10;2.17;;;4.10;99.90;;;;;;6220227;23;20004;-84
2022/02/08 08:02:24;;;;;;;6.05;2.10;;;4.10;99.90;;;;;;6220470;23;20074;-84
2022/02/08 08:04:50;;;;;;;7.70;1.95;;;4.20;99.90;;;;;;6220209;23;20004;-84
2022/02/08 08:07:15;;;;;;;11.02;2.63;;;4.30;99.90;;;;;;6220175;23;20074;-84
2022/02/08 08:09:42;;;;;;;7.13;2.15;;;4.40;99.90;;;;;;6220028;23;20004;-85
2022/02/08 08:12:11;;;;;;;6.45;1.75;;;4.90;99.90;;;;;;6220202;23;20004;-83
2022/02/08 08:14:37;;;;;;;9.93;2.10;;;5.10;99.90;;;;;;6246985;23;19997;-85
2022/02/08 08:19:41;;;;;;;5.85;2.13;;;5.70;99.90;;;;;;6257816;23;20004;-87
2022/02/08 08:22:08;;;;;;;7.20;1.90;;;6.20;99.90;;;;;;6220884;23;20004;-88
2022/02/08 08:24:35;;;;;;;8.43;2.50;;;6.20;99.90;;;;;;6220282;23;20341;-90
2022/02/08 08:27:00;;;;;;;7.85;2.10;;;6.10;99.90;;;;;;6222196;23;20498;-94
2022/02/08 08:29:26;;;;;;;8.43;2.25;;;6.50;99.90;;;;;;6221434;23;20001;-94
2022/02/08 08:31:52;;;;;;;6.75;1.80;;;7.70;99.90;;;;;;6221661;23;20005;-94
2022/02/08 08:34:18;;;;;;;5.18;1.75;;;8.40;99.90;;;;;;6222391;23;20000;-94
2022/02/08 08:36:46;;;;;;;7.85;1.92;;;9.10;99.90;;;;;;6224018;23;20000;-94
2022/02/08 08:39:18;;;;;;;9.98;2.20;;;9.50;99.90;;;;;;6223403;23;20004;-95
2022/02/08 08:42:08;;;;;;;7.57;1.95;;;9.90;99.90;;;;;;6224259;23;20084;-94
2022/02/08 08:44:54;;;;;;;5.47;1.50;;;10.40;99.90;;;;;;6248628;23;20084;-95
2022/02/08 08:50:32;;;;;;;7.07;2.03;;;11.50;99.90;;;;;;6249110;23;20070;-94
2022/02/08 08:52:58;;;;;;;6.85;1.88;;;11.30;99.90;;;;;;6221322;23;20017;-94
2022/02/08 08:55:24;;;;;;;7.53;2.00;;;11.10;99.90;;;;;;6221860;23;20433;-95
2022/02/08 08:57:50;;;;;;;6.63;1.85;;;10.70;99.90;;;;;;6221168;23;20039;-95
2022/02/08 09:00:16;;;;;;;8.52;1.95;;;10.20;99.90;;;;;;6221359;23;20001;-94
2022/02/08 09:02:42;;;;;;;8.85;2.17;;;9.90;99.90;;;;;;6221932;23;20004;-96
2022/02/08 09:05:12;;;;;;;7.13;1.95;;;9.80;99.90;;;;;;6221641;23;20338;-95
2022/02/08 09:07:41;;;;;;;8.02;2.40;;;9.70;99.90;;;;;;6247731;23;20099;-94
2022/02/08 09:10:08;;;;;;;10.55;2.00;;;9.50;99.90;;;;;;6221398;23;20016;-94
2022/02/08 09:13:00;;;;;;;8.63;2.15;;;9.30;99.90;;;;;;6221282;23;20433;-96
2022/02/08 09:26:47;;;;;;;9.23;2.00;;;8.80;99.90;;;;;;6199022;23;20006;-95
2022/02/08 09:29:22;;;;;;;11.80;2.33;;;8.70;99.90;;;;;;6221614;23;20077;-94
2022/02/08 09:31:48;;;;;;;9.05;2.20;;;8.60;99.90;;;;;;6221762;23;20000;-94
2022/02/08 09:34:14;;;;;;;11.23;2.35;;;8.60;99.90;;;;;;6220928;23;20010;-94
2022/02/08 09:36:40;;;;;;;9.98;2.05;;;8.50;99.90;;;;;;6221319;23;20393;-95
2022/02/08 09:39:06;;;;;;;10.93;2.33;;;8.40;99.90;;;;;;6222607;23;20012;-94
2022/02/08 09:41:34;;;;;;;9.40;2.20;;;8.50;99.90;;;;;;6222456;23;20425;-95
2022/02/08 09:44:03;;;;;;;5.63;1.65;;;8.50;99.90;;;;;;6221887;23;20011;-94
2022/02/08 09:46:29;;;;;;;7.10;2.33;;;8.40;99.90;;;;;;6221918;23;20011;-95
2022/02/08 09:48:57;;;;;;;8.18;2.40;;;8.40;99.90;;;;;;6222383;23;20008;-93
2022/02/08 09:51:25;;;;;;;7.38;1.90;;;8.50;99.90;;;;;;6221482;23;20008;-95
2022/02/08 09:54:03;;;;;;;7.80;2.28;;;8.50;99.90;;;;;;6247098;23;20046;-92
2022/02/08 09:56:28;;;;;;;8.18;2.13;;;8.60;99.90;;;;;;6222345;23;20004;-96
2022/02/08 09:58:55;;;;;;;9.40;2.33;;;8.50;99.90;;;;;;6221491;23;20007;-92
2022/02/08 10:01:23;;;;;;;8.80;1.98;;;8.50;99.90;;;;;;6247757;23;20012;-93
2022/02/08 10:04:00;;;;;;;12.88;2.78;;;8.60;99.90;;;;;;6220992;23;20436;-93
2022/02/08 10:06:27;;;;;;;10.05;2.20;;;8.50;99.90;;;;;;6221060;23;20078;-95
2022/02/08 10:09:09;;;;;;;5.93;1.98;;;8.50;99.90;;;;;;6221510;23;20083;-93
2022/02/08 10:11:45;;;;;;;7.20;2.00;;;8.40;99.90;;;;;;6222713;23;20004;-94
2022/02/08 10:14:25;;;;;;;5.75;1.80;;;8.50;99.90;;;;;;6222619;23;20008;-90
2022/02/08 10:21:23;;;;;;;9.02;1.85;;;8.30;99.90;;;;;;6249609;23;20142;-93
2022/02/08 10:22:42;;;;;;;10.77;2.33;;;8.30;99.90;;;;;;6223000;23;20004;-94
2022/02/08 10:25:11;;;;;;;9.85;2.03;;;8.20;99.90;;;;;;6222268;23;20008;-92
2022/02/08 10:27:41;;;;;;;9.07;1.77;;;8.20;99.90;;;;;;6222417;23;20012;-95
2022/02/08 10:38:49;;;;;;;8.10;1.98;;;8.30;99.90;;;;;;6249184;23;20062;-91
2022/02/08 10:41:17;;;;;;;6.78;1.70;;;8.30;99.90;;;;;;6222022;23;20012;-94
2022/02/08 10:44:02;;;;;;;8.98;1.88;;;8.30;99.90;;;;;;6222116;23;20088;-95
2022/02/08 10:46:28;;;;;;;;;;;8.30;99.90;;;;;;6222618;23;20445;-93
2022/02/08 10:49:23;;;;;;;6.07;1.63;;;8.30;99.90;;;;;;6222806;23;20328;-92
2022/02/08 10:51:55;;;;;;;;;;;8.30;99.90;;;;;;6191208;23;20455;-94
2022/02/08 10:56:57;;;;;;;7.18;1.60;;;8.30;99.90;;;;;;6248842;23;20024;-92
2022/02/08 10:59:31;;;;;;;8.43;1.90;;;8.30;99.90;;;;;;6221934;23;20428;-92
2022/02/08 11:02:03;;;;;;;4.50;1.27;;;8.30;99.90;;;;;;6249015;23;20004;-92
2022/02/08 11:04:48;;;;;;;5.95;1.90;;;8.30;99.90;;;;;;6221963;23;20063;-92
2022/02/08 11:07:30;;;;;;;9.73;1.83;;;8.20;99.90;;;;;;6221995;23;20010;-91
2022/02/08 11:12:56;;;;;;;6.78;1.63;;;8.30;99.90;;;;;;6248989;23;20015;-94
2022/02/08 11:21:04;;;;;;;6.78;1.80;;;8.20;99.90;;;;;;6258715;23;20014;-93
2022/02/08 11:23:47;;;;;;;6.38;1.83;;;8.30;99.90;;;;;;6248586;23;20008;-93
2022/02/08 11:26:38;;;;;;;4.07;1.65;;;8.40;99.90;;;;;;6221601;23;20083;-93
2022/02/08 11:29:15;;;;;;;6.15;1.42;;;8.40;99.90;;;;;;6248312;23;20007;-94
2022/02/08 11:31:48;;;;;;;4.50;1.35;;;8.40;99.90;;;;;;6221677;23;20004;-94
2022/02/08 11:56:21;;;;;;;4.82;1.35;;;7.30;99.90;;;;;;6258725;23;20007;-94
2022/02/08 12:01:30;;;;;;;7.00;1.80;;;7.20;99.90;;;;;;6248610;23;20011;-94
2022/02/08 12:07:15;;;;;;;5.97;1.58;;;7.00;99.90;;;;;;6248238;23;20131;-94
2022/02/08 12:09:43;;;;;;;6.30;1.23;;;7.00;99.90;;;;;;6232443;23;20000;-93
2022/02/08 12:12:47;;;;;;;4.18;1.50;;;7.00;99.90;;;;;;6220974;23;20004;-91
2022/02/08 12:52:06;;;;;;;5.97;1.08;;;7.70;99.90;;;;;;6181973;23;20016;-94
2022/02/08 12:57:13;;;;;;;5.57;1.63;;;7.70;99.90;;;;;;6258098;23;20027;-93
2022/02/08 13:02:34;;;;;;;8.10;1.35;;;7.50;99.90;;;;;;6248194;23;20321;-94
2022/02/08 14:08:20;;;;;;;5.97;1.48;;;6.90;99.90;;;;;;6247358;23;20070;-92
2022/02/08 14:18:46;;;;;;;2.90;1.20;;;6.70;99.90;;;;;;6257560;23;20008;-93
2022/02/08 14:37:19;;;;;;;7.28;1.50;;;6.40;99.90;;;;;;6257464;23;20011;-93
2022/02/08 14:49:03;;;;;;;7.57;1.73;;;6.40;99.90;;;;;;6246454;23;20000;-92
2022/02/08 15:10:16;;;;;;;4.32;1.73;;;6.20;99.90;;;;;;6248984;23;20088;-93
2022/02/08 15:12:49;;;;;;;8.85;1.80;;;6.20;99.90;;;;;;6222907;23;20087;-92
2022/02/08 15:17:55;;;;;;;4.60;1.80;;;6.20;99.90;;;;;;6258766;23;20000;-93
2022/02/08 15:20:23;;;;;;;4.60;1.45;;;6.20;99.90;;;;;;6221885;23;20468;-95
2022/02/08 15:22:49;;;;;;;3.53;1.60;;;6.20;99.90;;;;;;6221796;23;20315;-91
2022/02/08 15:25:15;;;;;;;6.30;1.90;;;6.20;99.90;;;;;;6221535;23;20011;-93
2022/02/08 15:27:43;;;;;;;7.03;1.88;;;6.20;99.90;;;;;;6221651;23;20005;-91
2022/02/08 15:30:09;;;;;;;5.95;2.00;;;6.10;99.90;;;;;;6221677;23;20437;-93
2022/02/08 15:32:36;;;;;;;6.72;2.03;;;6.10;99.90;;;;;;6221778;23;20055;-92
2022/02/08 15:35:03;;;;;;;8.75;2.10;;;6.10;99.90;;;;;;6221963;23;20087;-91
2022/02/08 15:37:31;;;;;;;6.43;2.47;;;6.10;99.90;;;;;;6221638;23;20000;-92
2022/02/08 15:40:02;;;;;;;5.78;2.10;;;6.10;99.90;;;;;;6221810;23;20091;-93
2022/02/08 15:42:38;;;;;;;8.10;2.33;;;6.10;99.90;;;;;;6221736;23;20008;-93
2022/02/08 15:45:16;;;;;;;8.25;2.10;;;6.10;99.90;;;;;;6221506;23;20011;-93
2022/02/08 15:47:42;;;;;;;7.97;2.28;;;6.10;99.90;;;;;;6248321;23;20004;-94
2022/02/08 15:50:10;;;;;;;7.05;1.83;;;6.10;99.90;;;;;;6216442;23;20400;-92
2022/02/08 15:55:15;;;;;;;6.38;2.00;;;6.10;99.90;;;;;;6229184;23;20008;-92
2022/02/08 16:00:34;;;;;;;8.93;3.05;;;6.10;99.90;;;;;;6218362;23;20011;-92
2022/02/08 16:08:14;;;;;;;19.95;6.20;;;6.10;99.90;;;;;;6217832;23;20008;-93
2022/02/08 16:10:55;;;;;;;17.90;6.88;;;6.00;99.90;;;;;;6216313;23;20005;-92
2022/02/08 16:14:11;;;;;;;18.50;6.07;;;6.10;99.90;;;;;;6216388;23;20084;-92
2022/02/08 16:18:49;;;;;;;15.55;4.78;;;6.00;99.90;;;;;;6217669;23;20015;-91
2022/02/08 16:21:37;;;;;;;14.38;5.05;;;6.00;99.90;;;;;;6216158;23;20070;-92
2022/02/08 16:29:08;;;;;;;9.73;4.15;;;6.00;99.90;;;;;;6218184;23;20070;-92
2022/02/08 16:51:04;;;;;;;8.40;3.72;;;6.00;99.90;;;;;;6241721;23;20086;-94
2022/02/08 16:53:24;;;;;;;11.55;3.92;;;6.00;99.90;;;;;;6247179;23;20333;-95
2022/02/08 16:56:08;;;;;;;10.70;4.22;;;6.00;99.90;;;;;;6220889;23;20024;-93
2022/02/08 17:01:07;;;;;;;10.70;4.53;;;6.00;99.90;;;;;;6248150;23;20004;-93
2022/02/08 17:03:33;;;;;;;11.50;4.22;;;6.00;99.90;;;;;;6221904;23;20421;-95
2022/02/08 17:05:59;;;;;;;12.25;4.10;;;6.00;99.90;;;;;;6220702;23;20083;-94
2022/02/08 17:08:26;;;;;;;15.25;4.95;;;6.00;99.90;;;;;;6221007;23;20011;-92
2022/02/08 17:10:56;;;;;;;11.07;4.47;;;6.00;99.90;;;;;;6220796;23;20012;-92
2022/02/08 17:45:59;;;;;;;13.52;4.60;;;6.20;99.90;;;;;;6257396;23;20388;-94
2022/02/08 17:48:25;;;;;;;16.73;4.68;;;6.10;99.90;;;;;;6220474;23;20008;-93
2022/02/08 17:50:50;;;;;;;10.68;4.03;;;6.10;99.90;;;;;;6220178;23;20604;-94
2022/02/08 17:53:17;;;;;;;12.02;4.63;;;6.10;99.90;;;;;;6220340;23;20005;-93
2022/02/08 17:55:43;;;;;;;12.63;4.28;;;6.10;99.90;;;;;;6246995;23;20332;-92
2022/02/08 17:58:09;;;;;;;16.05;4.47;;;6.10;99.90;;;;;;6220326;23;20033;-94
2022/02/08 18:00:36;;;;;;;13.50;4.45;;;6.10;99.90;;;;;;6220748;23;20050;-92
2022/02/08 18:03:05;;;;;;;14.77;4.93;;;6.10;99.90;;;;;;6220380;23;20008;-93
2022/02/08 18:05:31;;;;;;;14.15;5.50;;;6.00;99.90;;;;;;6220321;23;20004;-93
2022/02/08 18:07:58;;;;;;;11.75;4.78;;;6.10;99.90;;;;;;6220419;23;20004;-93
2022/02/08 18:10:25;;;;;;;11.40;5.10;;;6.10;99.90;;;;;;6220357;23;20008;-92
2022/02/08 18:12:55;;;;;;;11.90;5.00;;;6.10;99.90;;;;;;6247015;23;20000;-93
2022/02/08 18:15:23;;;;;;;10.60;4.70;;;6.10;99.90;;;;;;6220409;23;20083;-93
2022/02/08 18:17:59;;;;;;;11.60;4.50;;;6.10;99.90;;;;;;6220291;23;20000;-93
2022/02/08 18:20:33;;;;;;;10.57;4.38;;;6.00;99.90;;;;;;6220312;23;20079;-93
2022/02/08 19:03:33;;;;;;;12.23;4.55;;;6.10;99.90;;;;;;6258948;23;20000;-93
2022/02/08 19:04:38;;;;;;;6.75;3.67;;;6.00;99.90;;;;;;6157064;23;20012;-92
2022/02/08 19:07:10;;;;;;;11.43;4.00;;;6.00;99.90;;;;;;6245257;23;20079;-93
2022/02/08 19:12:32;;;;;;;11.50;4.47;;;6.00;99.90;;;;;;6258621;23;20385;-93
2022/02/08 19:18:29;;;;;;;10.57;4.40;;;6.00;99.90;;;;;;6168141;23;20033;-93
2022/02/08 19:21:40;;;;;;;7.55;3.90;;;6.00;99.90;;;;;;6228724;23;20451;-92
2022/02/08 19:23:37;;;;;;;7.05;3.92;;;6.00;99.90;;;;;;6232184;23;20332;-92
2022/02/08 19:26:06;;;;;;;7.60;4.03;;;6.10;99.90;;;;;;6222039;23;19997;-93
2022/02/08 19:28:32;;;;;;;6.32;3.60;;;6.10;99.90;;;;;;6221562;23;20008;-93
2022/02/08 19:30:58;;;;;;;8.88;3.97;;;6.10;99.90;;;;;;6221607;23;20001;-92
2022/02/08 19:33:26;;;;;;;7.13;3.65;;;6.10;99.90;;;;;;6248250;23;19999;-93
2022/02/08 19:35:52;;;;;;;7.57;4.10;;;6.10;99.90;;;;;;6221537;23;20007;-92
2022/02/08 19:38:19;;;;;;;9.50;4.20;;;6.00;99.90;;;;;;6221581;23;20032;-92
2022/02/08 19:40:45;;;;;;;8.73;4.20;;;6.10;99.90;;;;;;6221448;23;20382;-93
2022/02/08 19:43:11;;;;;;;6.10;3.75;;;6.10;99.90;;;;;;6221694;23;20007;-92
2022/02/08 19:45:43;;;;;;;8.75;4.43;;;6.10;99.90;;;;;;6222833;23;20001;-93
2022/02/08 19:48:09;;;;;;;7.78;4.07;;;6.00;99.90;;;;;;6248542;23;20023;-93
2022/02/08 19:50:36;;;;;;;7.82;4.35;;;6.00;99.90;;;;;;6221286;23;20031;-92
2022/02/08 19:53:06;;;;;;;7.15;3.80;;;6.10;99.90;;;;;;6248158;23;20004;-92
2022/02/08 19:58:09;;;;;;;8.43;3.72;;;6.00;99.90;;;;;;6248571;23;20203;-93
2022/02/08 20:00:36;;;;;;;7.78;3.80;;;6.00;99.90;;;;;;6248100;23;20067;-92
2022/02/08 20:03:04;;;;;;;8.00;4.05;;;6.00;99.90;;;;;;6221475;23;20027;-93
2022/02/08 20:05:31;;;;;;;8.77;4.32;;;6.00;99.90;;;;;;6221275;23;20372;-92
2022/02/08 20:07:59;;;;;;;8.88;4.63;;;6.00;99.90;;;;;;6221308;23;20083;-93
2022/02/08 20:10:26;;;;;;;7.60;3.90;;;6.10;99.90;;;;;;6247747;23;20433;-93
2022/02/08 20:12:53;;;;;;;6.55;3.75;;;6.10;99.90;;;;;;6221244;23;20004;-92
2022/02/08 20:15:19;;;;;;;8.18;4.05;;;6.00;99.90;;;;;;6221274;23;20010;-92
2022/02/08 20:17:50;;;;;;;7.82;4.05;;;6.00;99.90;;;;;;6221188;23;20016;-93
2022/02/08 20:20:16;;;;;;;10.57;4.30;;;6.10;99.90;;;;;;6221251;23;20004;-92
2022/02/08 20:22:47;;;;;;;7.65;4.40;;;6.00;99.90;;;;;;6247966;23;20439;-93
2022/02/08 20:25:15;;;;;;;11.50;3.97;;;6.00;99.90;;;;;;6221146;23;20012;-92
2022/02/08 20:27:51;;;;;;;9.75;4.85;;;6.10;99.90;;;;;;6221231;23;20008;-92
2022/02/08 20:30:23;;;;;;;7.22;3.80;;;6.10;99.90;;;;;;6221208;23;20008;-92
2022/02/08 20:32:52;;;;;;;8.05;3.67;;;6.10;99.90;;;;;;6247680;23;20417;-92
2022/02/08 20:35:19;;;;;;;8.55;3.92;;;6.00;99.90;;;;;;6221467;23;20000;-92
2022/02/08 20:37:47;;;;;;;7.40;3.92;;;6.10;99.90;;;;;;6221223;23;20054;-92
2022/02/08 20:40:13;;;;;;;6.63;3.95;;;6.00;99.90;;;;;;6221157;23;20380;-92
2022/02/08 20:42:40;;;;;;;9.75;4.30;;;6.00;99.90;;;;;;6220878;23;20008;-93
2022/02/08 20:45:07;;;;;;;9.23;4.00;;;6.00;99.90;;;;;;6221006;23;20467;-93
2022/02/08 20:47:35;;;;;;;9.15;4.55;;;6.00;99.90;;;;;;6220853;23;20011;-92
2022/02/08 20:50:15;;;;;;;7.70;4.10;;;6.00;99.90;;;;;;6220891;23;20055;-93